sensor_id;sensor_type;location;lat;lon;timestamp;pressure;altitude;pressure_sealevel;temperature;humidity
28312;BME280;15572;48.810;9.148;2023-03-04T00:04:53;98665.59;;;0.35;100.00
28312;BME280;15572;48.810;9.148;2023-03-04T00:09:49;98663.31;;;0.41;100.00
28312;BME280;15572;48.810;9.148;2023-03-04T00:14:47;98661.03;;;0.37;100.00
28312;BME280;15572;48.810;9.148;2023-03-04T00:19:44;98664.38;;;0.28;100.00
28312;BME280;15572;48.810;9.148;2023-03-04T00:24:40;98664.03;;;0.10;100.00
28312;BME280;15572;48.810;9.148;2023-03-04T00:29:36;98668.03;;;0.16;100.00
28312;BME280;15572;48.810;9.148;2023-03-04T00:34:34;98670.81;;;0.14;100.00
28312;BME280;15572;48.810;9.148;2023-03-04T00:39:31;98663.78;;;0.13;100.00
28312;BME280;15572;48.810;9.148;2023-03-04T00:44:27;98663.78;;;0.24;100.00
28312;BME280;15572;48.810;9.148;2023-03-04T00:49:24;98658.84;;;0.20;100.00
28312;BME280;15572;48.810;9.148;2023-03-04T00:54:21;98660.63;;;0.08;100.00
28312;BME280;15572;48.810;9.148;2023-03-04T00:59:18;98662.56;;;0.06;100.00
28312;BME280;15572;48.810;9.148;2023-03-04T01:04:14;98659.19;;;0.04;100.00
28312;BME280;15572;48.810;9.148;2023-03-04T01:09:11;98658.06;;;-0.05;100.00
28312;BME280;15572;48.810;9.148;2023-03-04T01:14:09;98656.63;;;-0.09;100.00
28312;BME280;15572;48.810;9.148;2023-03-04T01:19:05;98644.28;;;-0.10;100.00
28312;BME280;15572;48.810;9.148;2023-03-04T01:24:02;98647.81;;;0.02;100.00
28312;BME280;15572;48.810;9.148;2023-03-04T01:28:59;98650.22;;;-0.06;100.00
28312;BME280;15572;48.810;9.148;2023-03-04T01:33:57;98652.25;;;-0.21;100.00
28312;BME280;15572;48.810;9.148;2023-03-04T01:38:54;98646.81;;;-0.19;100.00
28312;BME280;15572;48.810;9.148;2023-03-04T01:43:50;98643.41;;;-0.21;100.00
28312;BME280;15572;48.810;9.148;2023-03-04T01:48:47;98645.47;;;-0.25;100.00
28312;BME280;15572;48.810;9.148;2023-03-04T01:53:46;98641.97;;;-0.14;100.00
28312;BME280;15572;48.810;9.148;2023-03-04T01:58:44;98641.00;;;-0.13;100.00
28312;BME280;15572;48.810;9.148;2023-03-04T02:03:40;98645.97;;;-0.20;100.00
28312;BME280;15572;48.810;9.148;2023-03-04T02:08:37;98637.94;;;-0.31;100.00
28312;BME280;15572;48.810;9.148;2023-03-04T02:13:35;98632.97;;;-0.35;100.00
28312;BME280;15572;48.810;9.148;2023-03-04T02:18:32;98633.59;;;-0.32;100.00
28312;BME280;15572;48.810;9.148;2023-03-04T02:23:32;98636.50;;;-0.35;100.00
28312;BME280;15572;48.810;9.148;2023-03-04T02:28:31;98631.69;;;-0.19;100.00
28312;BME280;15572;48.810;9.148;2023-03-04T02:33:28;98627.72;;;-0.02;100.00
28312;BME280;15572;48.810;9.148;2023-03-04T02:38:25;98626.28;;;-0.06;100.00
28312;BME280;15572;48.810;9.148;2023-03-04T02:43:21;98632.41;;;-0.28;100.00
28312;BME280;15572;48.810;9.148;2023-03-04T02:48:20;98628.03;;;-0.29;100.00
28312;BME280;15572;48.810;9.148;2023-03-04T02:53:19;98629.47;;;-0.36;100.00
28312;BME280;15572;48.810;9.148;2023-03-04T02:58:16;98632.84;;;-0.45;100.00
28312;BME280;15572;48.810;9.148;2023-03-04T03:03:12;98637.91;;;-0.42;100.00
28312;BME280;15572;48.810;9.148;2023-03-04T03:08:10;98637.44;;;-0.47;100.00
28312;BME280;15572;48.810;9.148;2023-03-04T03:13:07;98632.06;;;-0.58;100.00
28312;BME280;15572;48.810;9.148;2023-03-04T03:18:03;98644.63;;;-0.71;100.00
28312;BME280;15572;48.810;9.148;2023-03-04T03:23:00;98638.91;;;-0.78;100.00
28312;BME280;15572;48.810;9.148;2023-03-04T03:27:57;98637.09;;;-0.77;100.00
28312;BME280;15572;48.810;9.148;2023-03-04T03:32:54;98629.13;;;-0.77;100.00
28312;BME280;15572;48.810;9.148;2023-03-04T03:37:50;98628.28;;;-0.78;100.00
28312;BME280;15572;48.810;9.148;2023-03-04T03:42:47;98624.84;;;-0.91;100.00
28312;BME280;15572;48.810;9.148;2023-03-04T03:47:45;98627.78;;;-1.07;100.00
28312;BME280;15572;48.810;9.148;2023-03-04T03:52:41;98627.41;;;-1.13;100.00
28312;BME280;15572;48.810;9.148;2023-03-04T03:57:38;98627.25;;;-1.12;100.00
28312;BME280;15572;48.810;9.148;2023-03-04T04:02:34;98628.00;;;-1.10;100.00
28312;BME280;15572;48.810;9.148;2023-03-04T04:07:32;98630.44;;;-1.07;100.00
28312;BME280;15572;48.810;9.148;2023-03-04T04:12:28;98628.34;;;-1.14;100.00
28312;BME280;15572;48.810;9.148;2023-03-04T04:17:25;98630.94;;;-1.25;100.00
28312;BME280;15572;48.810;9.148;2023-03-04T04:22:21;98630.44;;;-1.31;100.00
28312;BME280;15572;48.810;9.148;2023-03-04T04:27:19;98633.72;;;-1.27;100.00
28312;BME280;15572;48.810;9.148;2023-03-04T04:32:16;98632.06;;;-1.41;100.00
28312;BME280;15572;48.810;9.148;2023-03-04T04:37:13;98639.59;;;-1.35;100.00
28312;BME280;15572;48.810;9.148;2023-03-04T04:42:09;98644.13;;;-1.24;100.00
28312;BME280;15572;48.810;9.148;2023-03-04T04:47:08;98648.81;;;-1.28;100.00
28312;BME280;15572;48.810;9.148;2023-03-04T04:52:04;98642.28;;;-1.47;100.00
28312;BME280;15572;48.810;9.148;2023-03-04T04:57:01;98643.47;;;-1.51;100.00
28312;BME280;15572;48.810;9.148;2023-03-04T05:01:57;98645.31;;;-1.64;100.00
28312;BME280;15572;48.810;9.148;2023-03-04T05:06:55;98641.50;;;-1.73;100.00
28312;BME280;15572;48.810;9.148;2023-03-04T05:11:52;98644.81;;;-1.82;100.00
28312;BME280;15572;48.810;9.148;2023-03-04T05:16:48;98656.41;;;-1.83;100.00
28312;BME280;15572;48.810;9.148;2023-03-04T05:21:47;98657.00;;;-1.67;100.00
28312;BME280;15572;48.810;9.148;2023-03-04T05:26:44;98661.22;;;-1.64;100.00
28312;BME280;15572;48.810;9.148;2023-03-04T05:31:41;98663.03;;;-1.65;100.00
28312;BME280;15572;48.810;9.148;2023-03-04T05:36:37;98660.09;;;-1.86;100.00
28312;BME280;15572;48.810;9.148;2023-03-04T05:41:34;98667.78;;;-1.94;100.00
28312;BME280;15572;48.810;9.148;2023-03-04T05:46:32;98670.09;;;-2.02;100.00
28312;BME280;15572;48.810;9.148;2023-03-04T05:51:28;98668.09;;;-1.98;100.00
28312;BME280;15572;48.810;9.148;2023-03-04T05:56:25;98668.84;;;-2.09;100.00
28312;BME280;15572;48.810;9.148;2023-03-04T06:01:22;98682.53;;;-2.15;100.00
28312;BME280;15572;48.810;9.148;2023-03-04T06:06:20;98674.00;;;-2.07;100.00
28312;BME280;15572;48.810;9.148;2023-03-04T06:11:16;98680.72;;;-2.15;100.00
28312;BME280;15572;48.810;9.148;2023-03-04T06:16:12;98682.31;;;-2.12;100.00
28312;BME280;15572;48.810;9.148;2023-03-04T06:21:09;98690.91;;;-2.21;100.00
28312;BME280;15572;48.810;9.148;2023-03-04T06:26:07;98693.47;;;-2.20;100.00
28312;BME280;15572;48.810;9.148;2023-03-04T06:31:06;98707.56;;;-2.06;100.00
28312;BME280;15572;48.810;9.148;2023-03-04T06:36:03;98703.97;;;-1.93;100.00
28312;BME280;15572;48.810;9.148;2023-03-04T06:41:06;98705.22;;;-1.86;100.00
28312;BME280;15572;48.810;9.148;2023-03-04T06:46:04;98719.25;;;-1.84;100.00
28312;BME280;15572;48.810;9.148;2023-03-04T06:51:05;98725.72;;;-1.75;100.00
28312;BME280;15572;48.810;9.148;2023-03-04T06:56:01;98726.56;;;-1.75;100.00
28312;BME280;15572;48.810;9.148;2023-03-04T07:01:10;98727.19;;;-1.58;100.00
28312;BME280;15572;48.810;9.148;2023-03-04T07:06:08;98730.78;;;-1.47;100.00
28312;BME280;15572;48.810;9.148;2023-03-04T07:11:05;98731.72;;;-1.35;100.00
28312;BME280;15572;48.810;9.148;2023-03-04T07:16:02;98735.09;;;-1.20;100.00
28312;BME280;15572;48.810;9.148;2023-03-04T07:20:59;98744.72;;;-1.07;100.00
28312;BME280;15572;48.810;9.148;2023-03-04T07:25:56;98750.00;;;-0.94;100.00
28312;BME280;15572;48.810;9.148;2023-03-04T07:30:53;98751.44;;;-0.77;100.00
28312;BME280;15572;48.810;9.148;2023-03-04T07:35:57;98754.78;;;-0.63;100.00
28312;BME280;15572;48.810;9.148;2023-03-04T07:40:56;98760.53;;;-0.45;100.00
28312;BME280;15572;48.810;9.148;2023-03-04T07:45:58;98761.31;;;-0.32;100.00
28312;BME280;15572;48.810;9.148;2023-03-04T07:51:06;98769.28;;;-0.32;100.00
28312;BME280;15572;48.810;9.148;2023-03-04T07:56:05;98776.97;;;-0.27;100.00
28312;BME280;15572;48.810;9.148;2023-03-04T08:01:08;98778.13;;;-0.31;100.00
28312;BME280;15572;48.810;9.148;2023-03-04T08:06:06;98778.44;;;-0.23;100.00
28312;BME280;15572;48.810;9.148;2023-03-04T08:11:05;98777.91;;;-0.28;100.00
28312;BME280;15572;48.810;9.148;2023-03-04T08:16:03;98777.69;;;-0.25;100.00
28312;BME280;15572;48.810;9.148;2023-03-04T08:21:00;98794.78;;;-0.17;100.00
28312;BME280;15572;48.810;9.148;2023-03-04T08:25:58;98789.63;;;-0.07;100.00
28312;BME280;15572;48.810;9.148;2023-03-04T08:30:56;98786.84;;;0.06;100.00
28312;BME280;15572;48.810;9.148;2023-03-04T08:35:53;98800.41;;;0.03;100.00
28312;BME280;15572;48.810;9.148;2023-03-04T08:40:53;98803.44;;;-0.02;100.00
28312;BME280;15572;48.810;9.148;2023-03-04T08:45:50;98805.88;;;0.12;100.00
28312;BME280;15572;48.810;9.148;2023-03-04T08:50:48;98804.91;;;0.13;100.00
28312;BME280;15572;48.810;9.148;2023-03-04T08:55:46;98798.53;;;0.27;100.00
28312;BME280;15572;48.810;9.148;2023-03-04T09:00:44;98797.56;;;0.28;100.00
28312;BME280;15572;48.810;9.148;2023-03-04T09:05:43;98800.25;;;0.39;100.00
28312;BME280;15572;48.810;9.148;2023-03-04T09:10:41;98814.72;;;0.59;100.00
28312;BME280;15572;48.810;9.148;2023-03-04T09:15:43;98809.50;;;0.68;100.00
28312;BME280;15572;48.810;9.148;2023-03-04T09:20:40;98812.19;;;0.68;100.00
28312;BME280;15572;48.810;9.148;2023-03-04T09:25:37;98810.00;;;0.62;100.00
28312;BME280;15572;48.810;9.148;2023-03-04T09:30:34;98816.16;;;0.63;100.00
28312;BME280;15572;48.810;9.148;2023-03-04T09:35:31;98811.56;;;0.65;100.00
28312;BME280;15572;48.810;9.148;2023-03-04T09:40:30;98808.78;;;0.66;100.00
28312;BME280;15572;48.810;9.148;2023-03-04T09:45:33;98800.31;;;0.95;100.00
28312;BME280;15572;48.810;9.148;2023-03-04T09:50:36;98798.81;;;1.13;100.00
28312;BME280;15572;48.810;9.148;2023-03-04T09:55:38;98802.41;;;1.45;100.00
28312;BME280;15572;48.810;9.148;2023-03-04T10:00:39;98802.56;;;1.87;100.00
28312;BME280;15572;48.810;9.148;2023-03-04T10:05:41;98806.31;;;1.84;100.00
28312;BME280;15572;48.810;9.148;2023-03-04T10:10:43;98801.69;;;1.54;100.00
28312;BME280;15572;48.810;9.148;2023-03-04T10:15:42;98800.19;;;1.61;100.00
28312;BME280;15572;48.810;9.148;2023-03-04T10:20:49;98794.59;;;1.64;100.00
28312;BME280;15572;48.810;9.148;2023-03-04T10:25:50;98798.22;;;1.75;100.00
28312;BME280;15572;48.810;9.148;2023-03-04T10:30:51;98797.56;;;1.82;98.18
28312;BME280;15572;48.810;9.148;2023-03-04T10:35:55;98791.19;;;1.74;99.06
28312;BME280;15572;48.810;9.148;2023-03-04T10:40:54;98788.81;;;1.91;95.10
28312;BME280;15572;48.810;9.148;2023-03-04T10:45:54;98787.69;;;1.94;94.44
28312;BME280;15572;48.810;9.148;2023-03-04T10:50:54;98789.34;;;2.06;96.09
28312;BME280;15572;48.810;9.148;2023-03-04T10:56:33;98783.09;;;2.17;92.96
28312;BME280;15572;48.810;9.148;2023-03-04T11:01:31;98764.44;;;2.05;92.57
28312;BME280;15572;48.810;9.148;2023-03-04T11:06:28;98768.53;;;2.09;93.24
28312;BME280;15572;48.810;9.148;2023-03-04T11:11:30;98759.69;;;2.30;92.14
28312;BME280;15572;48.810;9.148;2023-03-04T11:16:31;98761.19;;;2.23;92.49
28312;BME280;15572;48.810;9.148;2023-03-04T11:21:30;98754.59;;;2.27;92.65
28312;BME280;15572;48.810;9.148;2023-03-04T11:26:32;98752.22;;;2.24;92.06
28312;BME280;15572;48.810;9.148;2023-03-04T11:31:35;98756.94;;;2.20;91.25
28312;BME280;15572;48.810;9.148;2023-03-04T11:36:39;98754.34;;;2.30;91.97
28312;BME280;15572;48.810;9.148;2023-03-04T11:41:47;98746.31;;;2.09;90.97
28312;BME280;15572;48.810;9.148;2023-03-04T11:47:00;98750.84;;;2.29;90.45
28312;BME280;15572;48.810;9.148;2023-03-04T11:52:05;98739.72;;;2.24;90.30
28312;BME280;15572;48.810;9.148;2023-03-04T11:57:07;98733.50;;;2.24;88.90
28312;BME280;15572;48.810;9.148;2023-03-04T12:02:14;98727.63;;;2.30;89.36
28312;BME280;15572;48.810;9.148;2023-03-04T12:07:27;98721.00;;;2.24;90.89
28312;BME280;15572;48.810;9.148;2023-03-04T12:12:41;98707.25;;;2.08;92.78
28312;BME280;15572;48.810;9.148;2023-03-04T12:18:17;98702.66;;;2.20;89.84
28312;BME280;15572;48.810;9.148;2023-03-04T12:23:33;98706.50;;;2.27;90.78
28312;BME280;15572;48.810;9.148;2023-03-04T12:28:46;98681.91;;;2.23;90.26
28312;BME280;15572;48.810;9.148;2023-03-04T12:33:58;98686.63;;;2.20;90.59
28312;BME280;15572;48.810;9.148;2023-03-04T12:39:04;98680.66;;;2.27;90.47
28312;BME280;15572;48.810;9.148;2023-03-04T12:44:13;98679.22;;;2.23;91.60
28312;BME280;15572;48.810;9.148;2023-03-04T12:49:35;98669.22;;;2.25;91.87
28312;BME280;15572;48.810;9.148;2023-03-04T12:54:39;98664.16;;;2.22;91.86
28312;BME280;15572;48.810;9.148;2023-03-04T12:59:39;98660.00;;;2.29;91.15
28312;BME280;15572;48.810;9.148;2023-03-04T13:04:49;98657.97;;;2.22;90.74
28312;BME280;15572;48.810;9.148;2023-03-04T13:09:53;98668.28;;;2.05;91.65
28312;BME280;15572;48.810;9.148;2023-03-04T13:15:26;98667.03;;;2.09;91.79
28312;BME280;15572;48.810;9.148;2023-03-04T13:20:33;98657.09;;;2.11;90.56
28312;BME280;15572;48.810;9.148;2023-03-04T13:25:36;98657.81;;;2.14;88.76
28312;BME280;15572;48.810;9.148;2023-03-04T13:30:40;98654.59;;;1.99;88.90
28312;BME280;15572;48.810;9.148;2023-03-04T13:35:49;98652.59;;;2.12;88.20
28312;BME280;15572;48.810;9.148;2023-03-04T13:41:06;98659.06;;;2.19;87.40
28312;BME280;15572;48.810;9.148;2023-03-04T13:51:34;98653.47;;;2.22;87.28
28312;BME280;15572;48.810;9.148;2023-03-04T13:56:35;98650.81;;;2.22;87.38
28312;BME280;15572;48.810;9.148;2023-03-04T14:01:33;98648.88;;;2.24;87.84
28312;BME280;15572;48.810;9.148;2023-03-04T14:06:30;98648.53;;;2.18;88.14
28312;BME280;15572;48.810;9.148;2023-03-04T14:11:33;98655.59;;;2.19;88.61
28312;BME280;15572;48.810;9.148;2023-03-04T14:16:37;98647.00;;;2.25;87.50
28312;BME280;15572;48.810;9.148;2023-03-04T14:21:34;98644.63;;;2.22;87.67
28312;BME280;15572;48.810;9.148;2023-03-04T14:26:33;98637.25;;;2.14;88.90
28312;BME280;15572;48.810;9.148;2023-03-04T14:31:33;98641.47;;;2.07;88.12
28312;BME280;15572;48.810;9.148;2023-03-04T14:36:32;98623.00;;;2.04;89.06
28312;BME280;15572;48.810;9.148;2023-03-04T14:41:33;98625.56;;;2.05;88.96
28312;BME280;15572;48.810;9.148;2023-03-04T14:46:36;98620.66;;;2.10;89.52
28312;BME280;15572;48.810;9.148;2023-03-04T14:51:46;98622.59;;;2.08;89.56
28312;BME280;15572;48.810;9.148;2023-03-04T14:56:45;98610.81;;;2.11;88.64
28312;BME280;15572;48.810;9.148;2023-03-04T15:01:41;98612.53;;;2.12;89.56
28312;BME280;15572;48.810;9.148;2023-03-04T15:06:47;98605.84;;;1.97;91.17
28312;BME280;15572;48.810;9.148;2023-03-04T15:11:47;98611.09;;;2.08;90.65
28312;BME280;15572;48.810;9.148;2023-03-04T15:16:55;98600.66;;;2.05;91.71
28312;BME280;15572;48.810;9.148;2023-03-04T15:22:02;98607.06;;;2.14;91.08
28312;BME280;15572;48.810;9.148;2023-03-04T15:27:00;98613.09;;;2.16;92.31
28312;BME280;15572;48.810;9.148;2023-03-04T15:31:58;98610.97;;;2.19;92.97
28312;BME280;15572;48.810;9.148;2023-03-04T15:36:55;98600.47;;;2.27;92.86
28312;BME280;15572;48.810;9.148;2023-03-04T15:41:52;98600.38;;;2.38;91.99
28312;BME280;15572;48.810;9.148;2023-03-04T15:46:51;98596.91;;;2.47;90.70
28312;BME280;15572;48.810;9.148;2023-03-04T15:51:47;98594.50;;;2.44;91.84
28312;BME280;15572;48.810;9.148;2023-03-04T15:56:44;98596.34;;;2.53;91.88
28312;BME280;15572;48.810;9.148;2023-03-04T16:01:41;98605.63;;;2.49;92.65
28312;BME280;15572;48.810;9.148;2023-03-04T16:06:40;98596.03;;;2.47;92.28
28312;BME280;15572;48.810;9.148;2023-03-04T16:11:40;98601.94;;;2.41;91.28
28312;BME280;15572;48.810;9.148;2023-03-04T16:16:38;98601.91;;;2.31;92.75
28312;BME280;15572;48.810;9.148;2023-03-04T16:21:35;98595.72;;;2.31;92.44
28312;BME280;15572;48.810;9.148;2023-03-04T16:26:33;98600.91;;;2.23;92.38
28312;BME280;15572;48.810;9.148;2023-03-04T16:31:30;98593.13;;;2.20;93.88
28312;BME280;15572;48.810;9.148;2023-03-04T16:36:26;98602.97;;;2.19;94.79
28312;BME280;15572;48.810;9.148;2023-03-04T16:41:26;98596.53;;;2.22;95.63
28312;BME280;15572;48.810;9.148;2023-03-04T16:46:26;98601.75;;;2.23;95.11
28312;BME280;15572;48.810;9.148;2023-03-04T16:51:24;98604.41;;;2.23;95.52
28312;BME280;15572;48.810;9.148;2023-03-04T16:56:21;98601.03;;;2.21;95.72
28312;BME280;15572;48.810;9.148;2023-03-04T17:01:20;98605.63;;;2.19;95.40
28312;BME280;15572;48.810;9.148;2023-03-04T17:06:18;98600.84;;;2.13;95.94
28312;BME280;15572;48.810;9.148;2023-03-04T17:11:16;98600.00;;;2.13;96.85
28312;BME280;15572;48.810;9.148;2023-03-04T17:16:13;98596.50;;;2.12;96.80
28312;BME280;15572;48.810;9.148;2023-03-04T17:21:12;98608.03;;;2.13;97.01
28312;BME280;15572;48.810;9.148;2023-03-04T17:26:10;98604.38;;;2.14;97.17
28312;BME280;15572;48.810;9.148;2023-03-04T17:31:08;98612.41;;;2.14;97.66
28312;BME280;15572;48.810;9.148;2023-03-04T17:36:05;98608.88;;;2.13;97.61
28312;BME280;15572;48.810;9.148;2023-03-04T17:41:02;98618.44;;;2.16;98.07
28312;BME280;15572;48.810;9.148;2023-03-04T17:46:05;98618.31;;;2.17;98.13
28312;BME280;15572;48.810;9.148;2023-03-04T17:51:02;98608.31;;;2.19;97.89
28312;BME280;15572;48.810;9.148;2023-03-04T17:56:00;98610.28;;;2.17;97.54
28312;BME280;15572;48.810;9.148;2023-03-04T18:00:59;98612.25;;;2.15;97.69
28312;BME280;15572;48.810;9.148;2023-03-04T18:05:58;98613.22;;;2.14;97.87
28312;BME280;15572;48.810;9.148;2023-03-04T18:10:54;98602.28;;;2.17;97.74
28312;BME280;15572;48.810;9.148;2023-03-04T18:15:50;98603.16;;;2.27;96.92
28312;BME280;15572;48.810;9.148;2023-03-04T18:20:47;98600.44;;;2.18;98.00
28312;BME280;15572;48.810;9.148;2023-03-04T18:25:45;98598.19;;;2.13;98.60
28312;BME280;15572;48.810;9.148;2023-03-04T18:30:42;98596.63;;;2.10;98.38
28312;BME280;15572;48.810;9.148;2023-03-04T18:35:38;98587.75;;;2.10;99.13
28312;BME280;15572;48.810;9.148;2023-03-04T18:40:37;98583.97;;;2.13;99.08
28312;BME280;15572;48.810;9.148;2023-03-04T18:45:40;98579.63;;;2.11;99.37
28312;BME280;15572;48.810;9.148;2023-03-04T18:50:36;98579.09;;;2.18;99.18
28312;BME280;15572;48.810;9.148;2023-03-04T18:55:33;98585.13;;;2.20;99.15
28312;BME280;15572;48.810;9.148;2023-03-04T19:00:30;98576.84;;;2.23;99.33
28312;BME280;15572;48.810;9.148;2023-03-04T19:11:27;98575.28;;;2.20;99.72
28312;BME280;15572;48.810;9.148;2023-03-04T19:16:25;98579.22;;;2.26;99.50
28312;BME280;15572;48.810;9.148;2023-03-04T19:21:22;98582.63;;;2.28;99.94
28312;BME280;15572;48.810;9.148;2023-03-04T19:26:19;98578.97;;;2.29;100.00
28312;BME280;15572;48.810;9.148;2023-03-04T19:31:17;98568.88;;;2.32;99.75
28312;BME280;15572;48.810;9.148;2023-03-04T19:36:14;98572.50;;;2.31;99.42
28312;BME280;15572;48.810;9.148;2023-03-04T19:41:13;98565.34;;;2.32;99.04
28312;BME280;15572;48.810;9.148;2023-03-04T19:46:10;98565.47;;;2.30;98.61
28312;BME280;15572;48.810;9.148;2023-03-04T19:51:14;98568.13;;;2.30;98.71
28312;BME280;15572;48.810;9.148;2023-03-04T19:56:10;98556.75;;;2.28;99.02
28312;BME280;15572;48.810;9.148;2023-03-04T20:01:18;98567.84;;;2.24;99.27
28312;BME280;15572;48.810;9.148;2023-03-04T20:06:16;98559.69;;;2.25;98.66
28312;BME280;15572;48.810;9.148;2023-03-04T20:11:13;98561.50;;;2.25;98.98
28312;BME280;15572;48.810;9.148;2023-03-04T20:16:10;98567.56;;;2.27;98.71
28312;BME280;15572;48.810;9.148;2023-03-04T20:21:07;98563.63;;;2.31;99.05
28312;BME280;15572;48.810;9.148;2023-03-04T20:26:05;98561.56;;;2.34;98.80
28312;BME280;15572;48.810;9.148;2023-03-04T20:31:09;98563.09;;;2.37;98.66
28312;BME280;15572;48.810;9.148;2023-03-04T20:36:06;98555.81;;;2.39;98.19
28312;BME280;15572;48.810;9.148;2023-03-04T20:41:03;98548.75;;;2.38;98.16
28312;BME280;15572;48.810;9.148;2023-03-04T20:46:32;98540.75;;;2.38;98.13
28312;BME280;15572;48.810;9.148;2023-03-04T20:51:32;98535.69;;;2.35;98.10
28312;BME280;15572;48.810;9.148;2023-03-04T20:56:30;98537.78;;;2.31;98.97
28312;BME280;15572;48.810;9.148;2023-03-04T21:01:26;98532.72;;;2.28;99.46
28312;BME280;15572;48.810;9.148;2023-03-04T21:06:26;98532.44;;;2.31;99.57
28312;BME280;15572;48.810;9.148;2023-03-04T21:11:23;98535.50;;;2.27;99.44
28312;BME280;15572;48.810;9.148;2023-03-04T21:16:20;98537.22;;;2.28;99.33
28312;BME280;15572;48.810;9.148;2023-03-04T21:21:19;98536.06;;;2.30;99.43
28312;BME280;15572;48.810;9.148;2023-03-04T21:26:19;98531.31;;;2.34;99.26
28312;BME280;15572;48.810;9.148;2023-03-04T21:31:18;98534.44;;;2.39;99.37
28312;BME280;15572;48.810;9.148;2023-03-04T21:36:15;98533.44;;;2.40;98.64
28312;BME280;15572;48.810;9.148;2023-03-04T21:41:12;98527.25;;;2.39;98.33
28312;BME280;15572;48.810;9.148;2023-03-04T21:46:11;98520.66;;;2.43;98.54
28312;BME280;15572;48.810;9.148;2023-03-04T21:51:10;98522.34;;;2.44;98.59
28312;BME280;15572;48.810;9.148;2023-03-04T21:56:09;98514.47;;;2.43;98.44
28312;BME280;15572;48.810;9.148;2023-03-04T22:01:11;98513.47;;;2.44;98.43
28312;BME280;15572;48.810;9.148;2023-03-04T22:06:10;98506.16;;;2.46;97.97
28312;BME280;15572;48.810;9.148;2023-03-04T22:11:08;98497.31;;;2.45;97.92
28312;BME280;15572;48.810;9.148;2023-03-04T22:16:06;98504.63;;;2.43;98.31
28312;BME280;15572;48.810;9.148;2023-03-04T22:21:06;98501.09;;;2.43;98.15
28312;BME280;15572;48.810;9.148;2023-03-04T22:26:04;98493.94;;;2.43;98.50
28312;BME280;15572;48.810;9.148;2023-03-04T22:31:01;98486.88;;;2.42;97.86
28312;BME280;15572;48.810;9.148;2023-03-04T22:35:58;98487.44;;;2.46;97.65
28312;BME280;15572;48.810;9.148;2023-03-04T22:40:55;98474.94;;;2.46;97.68
28312;BME280;15572;48.810;9.148;2023-03-04T22:45:52;98465.09;;;2.47;97.38
28312;BME280;15572;48.810;9.148;2023-03-04T22:50:49;98463.25;;;2.47;97.70
28312;BME280;15572;48.810;9.148;2023-03-04T22:55:45;98473.09;;;2.37;98.37
28312;BME280;15572;48.810;9.148;2023-03-04T23:00:43;98469.69;;;2.35;98.99
28312;BME280;15572;48.810;9.148;2023-03-04T23:05:39;98473.09;;;2.37;99.60
28312;BME280;15572;48.810;9.148;2023-03-04T23:10:36;98476.75;;;2.36;100.00
28312;BME280;15572;48.810;9.148;2023-03-04T23:15:32;98462.84;;;2.42;99.94
28312;BME280;15572;48.810;9.148;2023-03-04T23:20:30;98456.38;;;2.45;99.72
28312;BME280;15572;48.810;9.148;2023-03-04T23:25:27;98463.25;;;2.47;99.02
28312;BME280;15572;48.810;9.148;2023-03-04T23:30:23;98457.91;;;2.47;99.55
28312;BME280;15572;48.810;9.148;2023-03-04T23:35:20;98464.94;;;2.48;99.57
28312;BME280;15572;48.810;9.148;2023-03-04T23:40:18;98455.09;;;2.49;99.13
28312;BME280;15572;48.810;9.148;2023-03-04T23:45:14;98461.31;;;2.49;99.07
28312;BME280;15572;48.810;9.148;2023-03-04T23:50:11;98453.28;;;2.49;99.17
28312;BME280;15572;48.810;9.148;2023-03-04T23:55:14;98455.38;;;2.46;99.17
